Time;durP1;ratioP1;P1;durP2;ratioP2;P2;SDS_P1;SDS_P2;PMS_P1;PMS_P2;Temp;Humidity;BMP_temperature;BMP_pressure;BME280_temperature;BME280_humidity;BME280_pressure;Samples;Min_cycle;Max_cycle;Signal;HPM_P1;HPM_P2
2023/10/17 00:00:45;;;;;;;;;;;9.50;99.90;;;8.76;95.70;100549.72;4152915;28;20519;-73
2023/10/17 00:02:46;;;;;;;3.47;1.52;;;9.60;99.90;;;8.81;95.31;100542.19;4135420;28;19914;-73
2023/10/17 00:04:47;;;;;;;2.70;1.27;;;9.60;99.90;;;8.81;95.35;100546.66;4152560;28;20076;-73
2023/10/17 00:06:54;;;;;;;2.50;1.17;;;9.60;99.90;;;8.83;95.67;100545.53;4153287;28;20034;-73
2023/10/17 00:08:56;;;;;;;5.20;1.50;;;9.60;99.90;;;8.83;95.22;100548.16;4144820;28;20026;-72
2023/10/17 00:10:57;;;;;;;5.00;1.50;;;9.60;99.90;;;8.85;95.34;100548.81;4152447;28;20030;-73
2023/10/17 00:13:18;;;;;;;2.72;1.15;;;9.60;99.90;;;8.86;94.98;100544.41;4153278;28;20088;-73
2023/10/17 00:15:28;;;;;;;2.40;1.50;;;9.60;99.90;;;8.85;94.91;100540.94;4168849;28;20021;-73
2023/10/17 00:17:29;;;;;;;3.72;1.00;;;9.60;99.90;;;8.84;95.42;100541.09;4152352;28;20068;-72
2023/10/17 00:19:33;;;;;;;2.63;1.02;;;9.60;99.90;;;8.82;94.74;100533.34;4167473;28;20033;-73
2023/10/17 00:21:34;;;;;;;6.50;1.73;;;9.60;99.90;;;8.84;95.55;100544.53;4135264;28;20037;-72
2023/10/17 00:23:35;;;;;;;3.50;1.75;;;9.60;99.90;;;8.83;96.05;100537.63;4152441;28;20413;-73
2023/10/17 00:25:37;;;;;;;4.13;1.95;;;9.60;99.90;;;8.83;96.75;100535.00;4152353;28;20037;-73
2023/10/17 00:27:38;;;;;;;2.40;1.30;;;9.60;99.90;;;8.85;95.77;100533.03;4152035;28;20030;-73
2023/10/17 00:29:39;;;;;;;3.92;1.65;;;9.60;99.90;;;8.85;96.01;100533.03;4152362;28;20029;-73
2023/10/17 00:31:43;;;;;;;4.00;1.48;;;9.60;99.90;;;8.90;95.46;100532.59;4152331;28;20505;-73
2023/10/17 00:33:48;;;;;;;1.90;1.00;;;9.60;99.90;;;8.89;95.58;100521.25;4134921;28;20084;-73
2023/10/17 00:35:50;;;;;;;2.42;1.20;;;9.60;99.90;;;8.89;95.87;100521.25;4152250;28;20036;-72
2023/10/17 00:37:57;;;;;;;2.35;1.13;;;9.60;99.90;;;8.89;95.97;100509.91;4134673;28;20031;-73
2023/10/17 00:39:59;;;;;;;3.35;1.30;;;9.70;99.90;;;8.88;96.29;100508.25;4152140;28;20108;-73
2023/10/17 00:44:08;;;;;;;4.20;1.70;;;9.60;99.90;;;8.88;95.60;100502.97;4155506;28;20040;-73
2023/10/17 00:46:09;;;;;;;3.08;1.20;;;9.60;99.90;;;8.88;96.44;100506.44;4168576;28;20030;-73
2023/10/17 00:48:20;;;;;;;2.90;1.23;;;9.60;99.90;;;8.89;96.16;100500.22;4168231;28;20025;-73
2023/10/17 00:50:21;;;;;;;2.72;1.30;;;9.60;99.90;;;8.89;95.93;100510.75;4136697;28;20022;-73
2023/10/17 00:52:26;;;;;;;4.05;1.27;;;9.60;99.90;;;8.89;95.95;100510.75;4145353;28;20033;-73
2023/10/17 00:54:29;;;;;;;3.90;1.42;;;9.60;99.90;;;8.87;95.78;100491.63;4168462;28;20025;-72
2023/10/17 00:56:30;;;;;;;2.47;1.52;;;9.70;99.90;;;8.93;95.76;100498.09;4151178;28;20028;-72
2023/10/17 00:58:30;;;;;;;4.38;1.65;;;9.70;99.90;;;8.94;95.87;100494.50;4168340;28;20029;-73
2023/10/17 01:00:47;;;;;;;4.50;1.52;;;9.70;99.90;;;8.93;95.64;100484.13;4168472;28;20025;-72
2023/10/17 01:02:51;;;;;;;2.72;1.23;;;9.70;99.90;;;8.94;95.66;100483.13;4152887;28;20033;-73
2023/10/17 01:04:56;;;;;;;;;;;9.70;99.90;;;8.91;95.96;100481.63;4168707;28;20447;-72
2023/10/17 01:07:05;;;;;;;;;;;9.70;99.90;;;8.88;96.17;100485.41;4169187;28;19945;-73
2023/10/17 01:09:25;;;;;;;2.60;1.50;;;9.70;99.90;;;8.92;95.81;100485.94;4168601;28;19932;-73
2023/10/17 01:11:29;;;;;;;2.45;1.70;;;9.70;99.90;;;8.93;96.35;100489.41;4167968;28;20057;-73
2023/10/17 01:13:30;;;;;;;4.10;1.10;;;9.70;99.90;;;8.93;95.65;100489.41;4164376;28;20460;-73
2023/10/17 01:15:38;;;;;;;4.18;1.42;;;9.70;99.90;;;8.93;95.38;100478.88;4137920;28;20035;-73
2023/10/17 01:17:39;;;;;;;2.85;1.27;;;9.70;99.90;;;8.94;96.17;100476.06;4155138;28;20029;-73
2023/10/17 01:19:42;;;;;;;2.88;1.33;;;9.70;99.90;;;8.95;96.15;100479.53;4138352;28;20057;-73
2023/10/17 01:21:43;;;;;;;4.60;1.42;;;9.70;99.90;;;8.95;96.35;100474.28;4154883;28;20026;-73
2023/10/17 01:23:53;;;;;;;4.60;2.28;;;9.70;99.90;;;8.92;95.77;100470.16;4158544;28;20039;-73
2023/10/17 01:25:56;;;;;;;4.32;1.63;;;9.70;99.90;;;8.95;96.20;100469.00;4137573;28;20066;-73
2023/10/17 01:27:58;;;;;;;4.00;1.25;;;9.70;99.90;;;8.92;95.85;100471.94;4154775;28;20057;-73
2023/10/17 01:29:59;;;;;;;3.08;1.20;;;9.70;99.90;;;8.88;96.43;100463.53;4154945;28;20026;-72
2023/10/17 01:32:02;;;;;;;3.30;1.35;;;9.60;99.90;;;8.87;96.25;100467.97;4137333;28;20037;-73
2023/10/17 01:34:06;;;;;;;5.38;1.90;;;9.60;99.90;;;8.86;95.86;100471.59;4154274;28;20029;-72
2023/10/17 01:36:09;;;;;;;5.28;1.60;;;9.60;99.90;;;8.79;96.06;100462.63;4148140;28;20065;-73
2023/10/17 01:38:10;;;;;;;4.38;1.70;;;9.60;99.90;;;8.77;95.99;100461.13;4162370;28;20030;-73
2023/10/17 01:40:19;;;;;;;2.38;1.27;;;9.50;99.90;;;8.73;96.07;100465.03;4154754;28;20030;-73
2023/10/17 01:42:20;;;;;;;3.15;1.60;;;9.50;99.90;;;8.69;95.64;100459.25;4156264;28;20072;-73
2023/10/17 01:44:21;;;;;;;2.22;1.23;;;9.50;99.90;;;8.67;95.03;100461.22;4147051;28;20030;-73
2023/10/17 01:46:22;;;;;;;3.72;1.42;;;9.40;99.90;;;8.62;95.42;100460.84;4154672;28;20037;-73
2023/10/17 01:48:26;;;;;;;2.70;1.45;;;9.40;99.90;;;8.61;95.63;100464.44;4136980;28;20026;-73
2023/10/17 01:50:28;;;;;;;2.20;1.60;;;9.40;99.90;;;8.60;95.73;100462.78;4141058;28;20390;-73
2023/10/17 01:52:30;;;;;;;3.78;1.38;;;9.40;99.90;;;8.60;95.37;100457.53;4153351;28;20030;-73
2023/10/17 01:54:32;;;;;;;7.78;1.70;;;9.40;99.90;;;8.60;96.01;100468.03;4160514;28;20108;-73
2023/10/17 01:56:35;;;;;;;2.80;1.25;;;9.40;99.90;;;8.61;95.37;100450.47;4136910;28;20030;-73
2023/10/17 01:58:37;;;;;;;3.38;1.23;;;9.40;99.90;;;8.64;95.03;100447.53;4137389;28;20026;-73
2023/10/17 02:00:38;;;;;;;6.47;2.00;;;9.40;99.90;;;8.65;94.70;100444.78;4152705;28;20064;-73
2023/10/17 02:02:39;;;;;;;2.03;1.17;;;9.40;99.90;;;8.67;94.50;100450.69;4153121;28;20029;-73
2023/10/17 02:04:40;;;;;;;3.25;1.70;;;9.40;99.90;;;8.70;94.29;100445.13;4139028;28;20027;-73
2023/10/17 02:06:42;;;;;;;4.75;1.67;;;9.50;99.90;;;8.71;94.38;100443.34;4154346;28;20033;-72
2023/10/17 02:08:44;;;;;;;3.35;1.73;;;9.50;99.90;;;8.72;94.04;100440.53;4154375;28;20045;-72
2023/10/17 02:10:47;;;;;;;4.75;1.30;;;9.50;99.90;;;8.76;93.93;100449.78;4136795;28;20037;-73
2023/10/17 02:12:48;;;;;;;3.30;1.35;;;9.50;99.90;;;8.76;93.86;100448.97;4129913;28;20018;-73
2023/10/17 02:14:49;;;;;;;3.22;1.77;;;9.50;99.90;;;8.73;93.87;100439.56;4137803;28;20032;-72
2023/10/17 02:16:51;;;;;;;3.38;1.30;;;9.50;99.90;;;8.72;93.55;100440.53;4136702;28;20517;-73
2023/10/17 02:18:52;;;;;;;3.03;1.27;;;9.50;99.90;;;8.70;93.97;100439.88;4137833;28;20430;-73
2023/10/17 02:20:53;;;;;;;4.10;1.58;;;9.50;99.90;;;8.68;94.49;100441.84;4136843;28;20536;-73
2023/10/17 02:22:55;;;;;;;3.80;1.25;;;9.50;99.90;;;8.67;94.43;100441.97;4137700;28;20030;-73
2023/10/17 02:24:57;;;;;;;5.15;1.55;;;9.40;99.90;;;8.69;93.76;100432.16;4136795;28;20588;-73
2023/10/17 02:27:00;;;;;;;4.53;1.63;;;9.40;99.90;;;8.71;94.02;100435.44;4137705;28;20118;-73
2023/10/17 02:29:05;;;;;;;2.08;1.45;;;9.40;99.90;;;8.71;93.71;100428.38;4137656;28;20029;-73
2023/10/17 02:31:06;;;;;;;2.53;1.30;;;9.50;99.90;;;8.70;94.48;100428.53;4136476;28;20034;-73
2023/10/17 02:33:28;;;;;;;4.60;1.27;;;9.50;99.90;;;8.73;94.09;100438.75;4137442;28;20394;-73
2023/10/17 02:35:36;;;;;;;5.43;1.30;;;9.50;99.90;;;8.77;93.77;100443.56;4136791;28;20034;-73
2023/10/17 02:37:37;;;;;;;2.40;1.30;;;9.50;99.90;;;8.80;93.21;100432.75;4124940;28;20022;-73
2023/10/17 02:39:38;;;;;;;3.13;1.20;;;9.60;99.90;;;8.82;93.06;100416.78;4137527;28;20106;-73
2023/10/17 02:41:45;;;;;;;1.95;1.10;;;9.60;99.90;;;8.87;93.35;100419.78;4136606;28;20089;-73
2023/10/17 02:43:47;;;;;;;4.63;1.73;;;9.60;99.90;;;8.92;93.32;100417.53;4137563;28;20038;-73
2023/10/17 02:45:49;;;;;;;2.45;1.20;;;9.70;99.90;;;8.96;93.05;100421.50;4137497;28;20038;-73
2023/10/17 02:47:54;;;;;;;5.45;1.77;;;9.70;99.90;;;9.02;92.58;100417.44;4137211;28;20037;-73
2023/10/17 02:49:57;;;;;;;2.95;1.30;;;9.70;99.90;;;9.06;92.25;100416.16;4136142;28;20072;-73
2023/10/17 02:51:58;;;;;;;3.08;1.35;;;9.80;99.90;;;9.10;92.23;100409.59;4136019;28;20469;-73
2023/10/17 02:54:05;;;;;;;2.53;1.20;;;9.80;99.90;;;9.11;91.81;100398.09;4152226;28;20060;-73
2023/10/17 02:56:18;;;;;;;2.50;1.27;;;9.80;99.90;;;9.13;91.41;100393.50;4137351;28;20030;-73
2023/10/17 02:58:19;;;;;;;4.97;1.50;;;9.90;99.90;;;9.13;90.51;100399.59;4137358;28;20053;-73
2023/10/17 03:00:25;;;;;;;3.90;1.42;;;9.90;99.90;;;9.07;90.59;100399.38;4137485;28;20026;-73
2023/10/17 03:02:36;;;;;;;6.22;1.40;;;9.90;99.90;;;9.09;90.35;100407.94;4137214;28;20041;-73
2023/10/17 03:04:41;;;;;;;2.90;1.30;;;9.90;99.90;;;9.03;90.22;100398.03;4137353;28;20408;-73
2023/10/17 03:06:44;;;;;;;4.40;2.17;;;9.80;99.90;;;9.07;90.16;100402.03;4135953;28;20030;-73
2023/10/17 03:08:52;;;;;;;2.45;1.30;;;9.80;99.90;;;9.07;90.18;100400.22;4136176;28;20030;-73
2023/10/17 03:10:59;;;;;;;5.20;1.10;;;9.90;99.90;;;9.12;89.70;100410.25;4135703;28;20542;-73
2023/10/17 03:13:05;;;;;;;3.15;1.17;;;9.90;99.90;;;9.10;89.08;100404.34;4134044;28;20023;-73
2023/10/17 03:15:18;;;;;;;4.15;1.65;;;9.90;99.90;;;9.11;89.14;100403.38;4137235;28;20030;-73
2023/10/17 03:17:20;;;;;;;2.80;1.58;;;9.80;99.90;;;9.09;89.34;100419.28;4137062;28;20049;-73
2023/10/17 03:19:27;;;;;;;2.47;1.30;;;9.80;99.90;;;9.10;89.00;100413.06;4135490;28;20070;-73
2023/10/17 03:21:34;;;;;;;3.50;1.63;;;9.80;99.90;;;9.10;89.34;100414.88;4136969;28;20030;-73
2023/10/17 03:23:35;;;;;;;3.05;1.60;;;9.80;99.90;;;9.07;89.15;100404.66;4135805;28;20096;-73
2023/10/17 03:25:39;;;;;;;3.40;1.38;;;9.80;99.90;;;9.07;90.14;100394.97;4136848;28;20030;-73
2023/10/17 03:27:48;;;;;;;4.90;1.50;;;9.90;99.90;;;9.15;89.98;100407.31;4136745;28;20466;-73
2023/10/17 03:29:51;;;;;;;3.40;1.40;;;9.90;99.90;;;9.14;89.48;100417.03;4136923;28;20437;-73
2023/10/17 03:31:58;;;;;;;3.30;1.15;;;9.90;99.90;;;9.16;89.11;100409.00;4135519;28;20053;-73
2023/10/17 03:34:00;;;;;;;4.15;1.10;;;9.90;99.90;;;9.16;88.85;100406.34;4135188;28;20058;-73
2023/10/17 03:36:34;;;;;;;3.15;1.30;;;9.90;99.90;;;9.12;88.66;100391.84;4136395;28;20030;-73
2023/10/17 03:38:30;;;;;;;2.28;1.23;;;9.90;99.90;;;9.15;88.96;100392.38;4135020;28;20032;-73
2023/10/17 03:40:36;;;;;;;3.70;1.25;;;9.90;99.90;;;9.13;88.57;100402.22;4136645;28;20038;-73
2023/10/17 03:44:39;;;;;;;4.05;1.85;;;9.90;99.90;;;9.12;88.20;100400.56;4135568;28;20030;-73
2023/10/17 03:46:40;;;;;;;2.88;1.05;;;9.90;99.90;;;9.13;88.69;100389.06;4136559;28;20030;-73
2023/10/17 03:48:50;;;;;;;6.25;1.17;;;9.90;99.90;;;9.15;88.58;100392.38;4136238;28;20030;-73
2023/10/17 03:52:55;;;;;;;3.83;1.25;;;9.90;99.90;;;9.24;88.01;100401.13;4135300;28;20053;-73
2023/10/17 03:54:55;;;;;;;5.18;1.48;;;10.00;99.90;;;9.35;86.95;100392.97;4135365;28;20038;-73
2023/10/17 03:57:02;;;;;;;3.40;1.42;;;10.00;99.90;;;9.34;87.17;100402.69;4136515;28;20319;-73
2023/10/17 04:01:18;;;;;;;3.72;1.65;;;10.10;99.90;;;9.34;87.03;100386.06;4136439;28;20054;-73
2023/10/17 04:03:26;;;;;;;3.58;1.40;;;10.10;99.90;;;9.33;86.76;100379.97;4135994;28;20022;-73
2023/10/17 04:05:28;;;;;;;4.10;1.55;;;10.10;99.90;;;9.25;87.29;100374.69;4136241;28;20042;-73
2023/10/17 04:07:31;;;;;;;5.45;1.30;;;10.10;99.90;;;9.29;86.91;100378.63;4134904;28;20026;-73
2023/10/17 04:09:46;;;;;;;2.78;1.40;;;10.10;99.90;;;9.29;87.63;100389.16;4136287;28;20025;-73
2023/10/17 04:11:58;;;;;;;3.00;1.55;;;10.00;99.90;;;9.28;87.17;100387.53;4141855;28;20044;-73
2023/10/17 04:14:02;;;;;;;4.28;1.40;;;10.10;99.90;;;9.30;87.36;100384.72;4159533;28;20048;-73
2023/10/17 04:16:09;;;;;;;3.33;1.42;;;10.10;99.90;;;9.31;86.84;100389.00;4152427;28;20037;-73
2023/10/17 04:18:11;;;;;;;4.90;1.60;;;10.10;99.90;;;9.33;86.76;100373.88;4152382;28;20064;-73
2023/10/17 04:20:12;;;;;;;8.32;1.52;;;10.10;99.90;;;9.36;86.75;100373.56;4150681;28;20038;-73
2023/10/17 04:22:19;;;;;;;3.67;1.75;;;10.10;99.90;;;9.35;86.39;100366.63;4151361;28;20025;-73
2023/10/17 04:24:54;;;;;;;3.00;1.20;;;10.10;99.90;;;9.32;87.20;100359.88;4150966;28;20513;-73
2023/10/17 04:26:48;;;;;;;3.75;1.23;;;10.10;99.90;;;9.31;87.21;100363.53;4167440;28;20044;-73
2023/10/17 04:28:52;;;;;;;6.13;2.08;;;10.10;99.90;;;9.35;87.44;100372.72;4150972;28;20026;-73
2023/10/17 04:30:56;;;;;;;2.70;1.30;;;10.10;99.90;;;9.38;87.86;100374.22;4151388;28;20022;-72
2023/10/17 04:33:09;;;;;;;;;;;10.10;99.90;;;9.32;87.36;100373.03;4168983;28;20473;-73
2023/10/17 04:35:10;;;;;;;2.35;1.10;;;10.10;99.90;;;9.28;87.86;100370.91;4168862;28;20284;-73
2023/10/17 04:37:16;;;;;;;3.22;1.35;;;10.10;99.90;;;9.25;87.26;100372.03;4151060;28;20056;-73
2023/10/17 04:43:45;;;;;;;3.85;1.67;;;10.00;99.90;;;9.23;87.95;100365.25;4153499;28;20029;-73
2023/10/17 04:45:55;;;;;;;2.85;1.38;;;10.00;99.90;;;9.18;87.75;100362.28;4168576;28;20075;-73
2023/10/17 04:48:11;;;;;;;3.75;1.33;;;10.00;99.90;;;9.23;87.50;100367.88;4152488;28;20121;-73
2023/10/17 04:50:12;;;;;;;4.63;1.52;;;10.00;99.90;;;9.21;87.73;100369.88;4158214;28;20030;-73
2023/10/17 04:52:19;;;;;;;3.92;1.50;;;10.00;99.90;;;9.18;88.34;100375.44;4155586;28;20064;-73
2023/10/17 04:54:29;;;;;;;6.10;2.00;;;10.00;99.90;;;9.14;88.12;100374.91;4138749;28;20028;-73
2023/10/17 04:56:52;;;;;;;3.97;1.38;;;9.90;99.90;;;9.09;88.55;100371.09;4155411;28;20477;-73
2023/10/17 04:58:56;;;;;;;2.53;1.02;;;9.90;99.90;;;9.09;88.77;100373.75;4155319;28;20037;-73
2023/10/17 05:04:02;;;;;;;2.72;1.60;;;9.90;99.90;;;9.02;88.60;100364.84;4138263;28;20023;-73
2023/10/17 05:05:40;;;;;;;2.47;1.17;;;9.80;99.90;;;9.04;88.78;100366.31;4133347;28;20044;-73
2023/10/17 06:17:29;;;;;;;2.50;1.35;;;10.10;99.90;;;9.40;92.52;100344.16;4154029;28;20045;-73
2023/10/17 06:19:32;;;;;;;3.75;1.30;;;10.10;99.90;;;9.41;92.59;100342.31;4162852;28;20068;-73
2023/10/17 06:21:38;;;;;;;5.03;1.98;;;10.10;99.90;;;9.47;92.76;100349.59;4154216;28;20032;-73
2023/10/17 06:26:05;;;;;;;4.00;1.55;;;10.20;99.90;;;9.47;92.43;100344.31;4154176;28;20034;-73
2023/10/17 06:31:10;;;;;;;3.50;1.30;;;10.20;99.90;;;9.48;92.32;100348.63;4139205;28;20041;-73
2023/10/17 06:32:49;;;;;;;5.22;1.80;;;10.20;99.90;;;9.41;92.13;100345.78;4153356;28;20037;-73
2023/10/17 06:35:03;;;;;;;5.00;1.50;;;10.20;99.90;;;9.36;91.78;100339.34;4136437;28;20030;-73
2023/10/17 06:37:11;;;;;;;2.33;1.40;;;10.10;99.90;;;9.37;91.81;100339.19;4138203;28;20022;-73
2023/10/17 06:39:19;;;;;;;12.18;1.77;;;10.10;99.90;;;9.34;92.11;100338.69;4167014;28;20033;-73
2023/10/17 06:41:38;;;;;;;3.28;1.17;;;10.10;99.90;;;9.34;92.31;100341.31;4139591;28;20484;-73
2023/10/17 06:43:46;;;;;;;4.43;1.27;;;10.10;99.90;;;9.40;91.87;100348.59;4142483;28;20033;-72
2023/10/17 06:46:40;;;;;;;2.05;1.30;;;10.10;99.90;;;9.44;92.23;100339.38;4137423;28;20544;-72
2023/10/17 06:48:18;;;;;;;9.98;1.92;;;10.20;99.90;;;9.49;92.09;100344.19;4136361;28;20129;-73
2023/10/17 06:51:28;;;;;;;2.00;1.13;;;10.20;99.90;;;9.50;91.83;100333.47;4153459;28;20026;-73
2023/10/17 06:54:53;;;;;;;2.42;1.20;;;10.20;99.90;;;9.50;92.48;100333.47;4137310;28;20509;-73
2023/10/17 06:56:55;;;;;;;2.85;1.30;;;10.20;99.90;;;9.53;92.22;100341.06;4135903;28;20038;-73
2023/10/17 06:59:03;;;;;;;4.22;1.35;;;10.20;99.90;;;9.53;92.41;100338.41;4153660;28;20022;-73
2023/10/17 07:01:05;;;;;;;3.13;1.20;;;10.30;99.90;;;9.59;92.41;100348.31;4137270;28;20026;-73
2023/10/17 07:03:07;;;;;;;2.78;1.10;;;10.30;99.90;;;9.70;92.27;100349.84;4152166;28;20541;-72
2023/10/17 07:05:09;;;;;;;6.15;1.20;;;10.30;99.90;;;9.73;92.04;100349.53;4169670;28;20040;-72
2023/10/17 07:07:10;;;;;;;4.80;1.58;;;10.40;99.90;;;9.82;91.90;100354.66;4169765;28;20041;-73
2023/10/17 07:09:17;;;;;;;6.65;1.30;;;10.50;99.90;;;9.92;91.38;100352.69;4169734;28;20484;-73
2023/10/17 07:16:12;;;;;;;5.00;1.13;;;10.70;99.90;;;10.09;90.68;100329.03;4168227;28;20028;-73
2023/10/17 07:22:53;;;;;;;3.00;1.15;;;10.90;99.90;;;10.24;89.95;100340.59;4165440;28;20036;-72
2023/10/17 07:24:54;;;;;;;2.53;1.17;;;10.90;99.90;;;10.33;90.29;100353.63;4153088;28;20103;-73
2023/10/17 07:26:56;;;;;;;4.15;1.42;;;11.00;99.90;;;10.38;89.92;100343.41;4153086;28;20421;-73
2023/10/17 07:28:57;;;;;;;4.40;1.60;;;11.00;99.90;;;10.46;89.78;100356.59;4152965;28;20026;-72
2023/10/17 07:30:58;;;;;;;2.75;1.10;;;11.10;99.90;;;10.50;89.94;100357.09;4152927;28;20022;-72
2023/10/17 07:32:59;;;;;;;4.03;1.10;;;11.20;99.90;;;10.57;89.67;100359.91;4162942;28;20034;-73
2023/10/17 07:35:04;;;;;;;2.97;1.13;;;11.20;99.90;;;10.65;89.67;100373.06;4153061;28;20056;-73
2023/10/17 07:37:12;;;;;;;2.63;1.00;;;11.30;99.90;;;10.70;89.23;100374.22;4136079;28;20114;-73
2023/10/17 07:39:23;;;;;;;3.40;1.70;;;11.30;99.90;;;10.74;88.41;100375.56;4152761;28;20037;-73
2023/10/17 07:41:36;;;;;;;2.88;1.17;;;11.40;99.90;;;10.76;88.42;100375.38;4154834;28;20105;-73
2023/10/17 07:43:38;;;;;;;3.42;1.20;;;11.40;99.90;;;10.82;88.09;100370.25;4139636;28;20393;-73
2023/10/17 07:45:39;;;;;;;2.50;1.10;;;11.40;99.90;;;10.95;87.96;100375.88;4151481;28;20022;-73
2023/10/17 07:47:51;;;;;;;3.70;1.13;;;11.50;99.90;;;11.03;87.62;100373.19;4152656;28;20064;-72
2023/10/17 07:49:52;;;;;;;4.70;1.50;;;11.60;99.90;;;11.15;86.99;100365.75;4152994;28;20026;-73
2023/10/17 07:51:54;;;;;;;2.75;1.75;;;11.70;99.90;;;11.26;86.34;100362.75;4158055;28;20022;-73
2023/10/17 07:53:55;;;;;;;5.40;1.55;;;11.80;99.90;;;11.27;85.69;100356.47;4166005;28;20382;-72
2023/10/17 07:56:04;;;;;;;4.80;1.42;;;11.90;99.90;;;11.41;86.03;100347.03;4162203;28;20174;-73
2023/10/17 07:58:09;;;;;;;2.33;1.38;;;12.00;99.90;;;11.50;85.95;100351.28;4136449;28;20065;-73
2023/10/17 08:00:26;;;;;;;4.28;1.42;;;12.10;99.90;;;11.57;85.30;100349.59;4135791;28;20036;-73
2023/10/17 08:02:30;;;;;;;1.90;1.10;;;12.10;99.90;;;11.68;84.40;100353.69;4155248;28;20088;-73
2023/10/17 08:04:31;;;;;;;3.50;1.23;;;12.30;99.90;;;11.76;84.14;100351.88;4152790;28;20026;-73
2023/10/17 08:06:32;;;;;;;5.13;1.52;;;12.40;99.90;;;11.83;83.91;100351.97;4134952;28;20061;-73
2023/10/17 08:08:34;;;;;;;2.85;1.10;;;12.40;99.90;;;12.01;83.81;100358.66;4135129;28;20498;-73
2023/10/17 08:10:38;;;;;;;4.13;1.83;;;12.50;99.90;;;12.00;82.83;100343.81;4151642;28;20054;-72
2023/10/17 08:12:40;;;;;;;4.53;1.35;;;12.60;99.90;;;12.17;82.97;100358.56;4134766;28;20085;-74
2023/10/17 08:14:41;;;;;;;4.38;1.25;;;12.80;99.90;;;12.29;82.93;100350.22;4136777;28;20037;-74
2023/10/17 08:16:42;;;;;;;4.57;1.27;;;12.90;99.90;;;12.36;83.01;100346.69;4134503;28;20030;-73
2023/10/17 08:18:43;;;;;;;5.32;1.50;;;12.90;99.90;;;12.36;82.25;100341.41;4135876;28;20023;-73
2023/10/17 08:21:33;;;;;;;4.35;1.20;;;13.00;99.90;;;12.37;82.19;100348.31;4134639;28;20022;-75
2023/10/17 08:23:19;;;;;;;3.70;1.30;;;13.00;99.90;;;12.38;81.98;100349.97;4135720;28;20085;-74
2023/10/17 08:25:26;;;;;;;3.13;1.30;;;13.10;99.90;;;12.44;82.06;100348.44;4136039;28;20037;-73
2023/10/17 08:29:28;;;;;;;2.55;1.10;;;13.10;99.90;;;12.51;81.31;100333.50;4135962;28;20026;-75
2023/10/17 08:32:13;;;;;;;7.68;1.60;;;13.20;99.90;;;12.46;80.56;100325.25;4134779;28;20018;-74
2023/10/17 08:36:01;;;;;;;4.25;1.75;;;13.30;99.90;;;12.46;79.89;100317.34;4136178;28;20022;-75
2023/10/17 08:38:03;;;;;;;2.90;1.40;;;13.30;99.90;;;12.56;80.34;100316.09;4135968;28;20038;-76
2023/10/17 08:40:29;;;;;;;3.45;1.38;;;13.30;99.90;;;12.61;80.17;100312.91;4134925;28;20401;-75
2023/10/17 08:44:37;;;;;;;5.05;1.27;;;13.50;99.90;;;12.93;79.67;100301.97;4135999;28;20565;-75
2023/10/17 08:46:38;;;;;;;5.65;1.88;;;13.50;99.90;;;13.08;79.30;100310.78;4134860;28;20036;-75
2023/10/17 08:48:39;;;;;;;3.75;1.65;;;13.70;99.90;;;13.13;78.55;100307.59;4134456;28;20026;-75
2023/10/17 08:50:40;;;;;;;4.07;1.85;;;13.80;99.90;;;13.11;78.12;100315.72;4135972;28;20027;-75
2023/10/17 08:52:44;;;;;;;5.32;1.20;;;13.80;99.90;;;13.22;78.36;100314.47;4134925;28;20030;-75
2023/10/17 08:54:47;;;;;;;3.40;1.08;;;13.80;99.90;;;13.32;78.43;100306.25;4136049;28;20025;-74
2023/10/17 08:56:50;;;;;;;3.65;1.20;;;13.90;99.90;;;13.42;78.08;100309.41;4134643;28;20031;-74
2023/10/17 08:59:03;;;;;;;2.20;1.02;;;14.00;99.90;;;13.50;77.93;100304.03;4135927;28;20045;-74
2023/10/17 09:01:22;;;;;;;2.28;1.30;;;14.10;99.90;;;13.64;78.02;100311.13;4135972;28;20026;-74
2023/10/17 09:03:36;;;;;;;4.97;1.25;;;14.20;99.90;;;13.80;77.73;100316.19;4135691;28;20030;-74
2023/10/17 09:06:10;;;;;;;3.80;1.23;;;14.40;99.90;;;13.92;76.71;100314.69;4134430;28;20031;-74
2023/10/17 09:08:21;;;;;;;7.22;1.90;;;14.50;99.90;;;13.97;76.28;100309.66;4134562;28;20042;-74
2023/10/17 09:10:36;;;;;;;3.40;1.33;;;14.70;99.90;;;13.98;76.70;100311.28;4134733;28;20022;-74
2023/10/17 09:12:42;;;;;;;3.65;1.25;;;14.70;99.90;;;14.07;76.59;100312.81;4134420;28;20051;-74
2023/10/17 09:14:48;;;;;;;5.57;1.80;;;14.70;99.90;;;14.18;76.73;100319.44;4134510;28;20081;-74
2023/10/17 09:17:11;;;;;;;5.40;1.85;;;14.80;99.90;;;14.18;75.93;100312.31;4134557;28;20030;-74
2023/10/17 09:19:14;;;;;;;4.10;1.50;;;14.80;99.90;;;14.18;76.04;100311.50;4134360;28;20057;-74
2023/10/17 09:21:22;;;;;;;3.83;1.60;;;14.80;99.90;;;14.23;76.56;100301.94;4135648;28;20394;-74
2023/10/17 09:23:24;;;;;;;5.28;1.70;;;14.90;99.90;;;14.13;75.96;100300.59;4134585;28;20645;-74
2023/10/17 09:25:26;;;;;;;5.45;2.05;;;14.90;99.90;;;14.23;76.54;100301.94;4134693;28;20026;-76
2023/10/17 09:27:31;;;;;;;4.40;1.90;;;14.90;99.90;;;14.34;76.06;100296.16;4135295;28;20045;-75
2023/10/17 09:29:55;;;;;;;4.05;1.67;;;15.00;99.90;;;14.37;74.82;100297.59;4102712;28;20051;-75
2023/10/17 09:31:56;;;;;;;3.25;1.95;;;15.10;99.90;;;14.35;74.88;100291.69;4118528;28;20035;-75
2023/10/17 09:34:04;;;;;;;5.88;1.80;;;15.10;99.90;;;14.37;74.81;100298.44;4133169;28;20026;-75
2023/10/17 09:36:06;;;;;;;5.97;2.42;;;15.10;99.90;;;14.45;75.22;100300.13;4138760;28;20027;-75
2023/10/17 09:38:08;;;;;;;6.25;2.03;;;15.20;99.90;;;14.50;74.75;100295.06;4137560;28;20026;-75
2023/10/17 09:40:18;;;;;;;8.40;2.15;;;15.20;99.90;;;14.53;74.60;100289.38;4138714;28;20034;-74
2023/10/17 09:42:19;;;;;;;3.88;1.90;;;15.20;99.90;;;14.57;75.00;100298.59;4138331;28;20085;-75
2023/10/17 09:44:20;;;;;;;8.63;2.30;;;15.30;99.90;;;14.62;75.09;100290.06;4138518;28;20037;-74
2023/10/17 09:46:26;;;;;;;4.93;1.98;;;15.30;99.90;;;14.77;75.31;100282.81;4137331;28;20042;-73
2023/10/17 09:48:35;;;;;;;6.35;2.13;;;15.40;99.90;;;14.63;74.36;100278.44;4136922;28;20057;-74
2023/10/17 09:50:40;;;;;;;4.72;2.30;;;15.50;99.90;;;14.62;74.63;100274.13;4126300;28;20037;-75
2023/10/17 09:52:51;;;;;;;6.22;2.33;;;15.40;99.90;;;14.78;75.27;100269.31;4137320;28;20057;-74
2023/10/17 09:54:52;;;;;;;6.85;2.42;;;15.50;99.90;;;15.01;74.40;100270.91;4136886;28;20053;-75
2023/10/17 09:56:54;;;;;;;8.23;1.92;;;15.60;99.90;;;15.00;73.90;100271.91;4136826;28;20175;-74
2023/10/17 09:59:03;;;;;;;3.67;1.70;;;15.80;99.90;;;15.22;74.17;100261.00;4137138;28;20077;-74
2023/10/17 10:01:20;;;;;;;5.43;2.08;;;15.90;99.90;;;15.37;73.56;100252.88;4137038;28;20086;-74
2023/10/17 10:03:24;;;;;;;3.90;1.60;;;16.10;99.90;;;15.51;74.07;100257.25;4137898;28;20019;-74
2023/10/17 10:05:30;;;;;;;7.95;2.58;;;16.20;99.90;;;15.47;73.15;100254.16;4138248;28;20037;-73
2023/10/17 10:07:31;;;;;;;6.78;1.98;;;16.30;99.90;;;15.32;73.22;100266.75;4137023;28;20026;-73
2023/10/17 10:09:36;;;;;;;3.35;1.73;;;16.20;99.90;;;15.29;74.24;100242.44;4136858;28;20030;-73
2023/10/17 10:11:52;;;;;;;5.00;1.90;;;16.20;99.90;;;15.14;73.50;100245.22;4144951;28;20053;-73
2023/10/17 10:14:08;;;;;;;7.55;2.15;;;16.10;99.90;;;15.08;74.22;100261.13;4162761;28;20073;-73
2023/10/17 10:16:09;;;;;;;4.15;1.88;;;16.00;99.90;;;14.99;74.58;100244.56;4170653;28;20489;-73
2023/10/17 10:18:12;;;;;;;5.05;2.10;;;15.90;99.90;;;15.08;75.22;100259.31;4170554;28;20032;-74
2023/10/17 10:20:13;;;;;;;4.18;2.08;;;15.90;99.90;;;15.10;74.96;100251.94;4166486;28;20132;-73
2023/10/17 10:22:16;;;;;;;5.28;1.70;;;15.90;99.90;;;15.18;74.95;100258.91;4170355;28;20116;-73
2023/10/17 10:24:18;;;;;;;4.85;2.03;;;16.00;99.90;;;15.36;75.45;100256.56;4170473;28;20060;-73
2023/10/17 10:26:19;;;;;;;6.40;1.98;;;16.10;99.90;;;15.54;75.30;100253.38;4153037;28;20053;-73
2023/10/17 10:28:31;;;;;;;5.53;2.78;;;16.20;99.90;;;15.54;74.41;100253.38;4152782;28;20026;-73
2023/10/17 10:30:38;;;;;;;4.05;2.38;;;16.30;99.90;;;15.57;74.81;100239.69;4170400;28;20018;-73
2023/10/17 10:32:40;;;;;;;3.47;1.60;;;16.30;99.90;;;15.60;74.75;100244.59;4153932;28;20088;-74
2023/10/17 10:34:41;;;;;;;7.18;2.30;;;16.40;99.90;;;15.53;74.48;100230.50;4154002;28;20440;-73
2023/10/17 10:36:42;;;;;;;5.25;1.90;;;16.30;99.90;;;15.53;74.39;100230.50;4136586;28;20026;-73